sensor_id;sensor_type;location;lat;lon;timestamp;P1;durP1;ratioP1;P2;durP2;ratioP2
1591;SDS011;789;51.612;7.510;2024-02-23T00:00:47;1.00;;;0.90;;
1591;SDS011;789;51.612;7.510;2024-02-23T00:03:14;1.37;;;1.20;;
1591;SDS011;789;51.612;7.510;2024-02-23T00:05:41;1.97;;;1.37;;
1591;SDS011;789;51.612;7.510;2024-02-23T00:08:07;2.20;;;1.17;;
1591;SDS011;789;51.612;7.510;2024-02-23T00:10:36;2.90;;;1.23;;
1591;SDS011;789;51.612;7.510;2024-02-23T00:13:03;1.40;;;1.30;;
1591;SDS011;789;51.612;7.510;2024-02-23T00:15:30;1.70;;;1.20;;
1591;SDS011;789;51.612;7.510;2024-02-23T00:17:57;2.37;;;1.50;;
1591;SDS011;789;51.612;7.510;2024-02-23T00:20:24;1.20;;;1.10;;
1591;SDS011;789;51.612;7.510;2024-02-23T00:22:51;1.10;;;1.00;;
1591;SDS011;789;51.612;7.510;2024-02-23T00:25:18;1.13;;;0.90;;
1591;SDS011;789;51.612;7.510;2024-02-23T00:27:46;1.17;;;1.00;;
1591;SDS011;789;51.612;7.510;2024-02-23T00:30:13;1.00;;;0.90;;
1591;SDS011;789;51.612;7.510;2024-02-23T00:32:40;1.70;;;1.20;;
1591;SDS011;789;51.612;7.510;2024-02-23T00:35:07;1.10;;;1.00;;
1591;SDS011;789;51.612;7.510;2024-02-23T00:37:34;1.07;;;1.00;;
1591;SDS011;789;51.612;7.510;2024-02-23T00:40:01;1.10;;;1.00;;
1591;SDS011;789;51.612;7.510;2024-02-23T00:42:29;1.90;;;1.00;;
1591;SDS011;789;51.612;7.510;2024-02-23T00:44:57;0.80;;;0.80;;
1591;SDS011;789;51.612;7.510;2024-02-23T00:47:24;0.80;;;0.80;;
1591;SDS011;789;51.612;7.510;2024-02-23T00:49:50;0.90;;;0.90;;
1591;SDS011;789;51.612;7.510;2024-02-23T00:52:17;1.20;;;1.10;;
1591;SDS011;789;51.612;7.510;2024-02-23T00:54:44;2.33;;;1.40;;
1591;SDS011;789;51.612;7.510;2024-02-23T00:57:11;1.40;;;1.30;;
1591;SDS011;789;51.612;7.510;2024-02-23T00:59:37;1.40;;;1.30;;
1591;SDS011;789;51.612;7.510;2024-02-23T01:02:06;0.93;;;0.90;;
1591;SDS011;789;51.612;7.510;2024-02-23T01:04:33;0.87;;;0.87;;
1591;SDS011;789;51.612;7.510;2024-02-23T01:07:00;1.37;;;1.00;;
1591;SDS011;789;51.612;7.510;2024-02-23T01:09:26;0.90;;;0.90;;
1591;SDS011;789;51.612;7.510;2024-02-23T01:11:53;1.27;;;1.00;;
1591;SDS011;789;51.612;7.510;2024-02-23T01:14:20;1.20;;;1.10;;
1591;SDS011;789;51.612;7.510;2024-02-23T01:16:47;1.53;;;1.17;;
1591;SDS011;789;51.612;7.510;2024-02-23T01:19:15;1.87;;;1.50;;
1591;SDS011;789;51.612;7.510;2024-02-23T01:21:42;1.83;;;1.10;;
1591;SDS011;789;51.612;7.510;2024-02-23T01:24:08;1.53;;;1.00;;
1591;SDS011;789;51.612;7.510;2024-02-23T01:26:35;2.10;;;1.40;;
1591;SDS011;789;51.612;7.510;2024-02-23T01:29:02;1.57;;;1.47;;
1591;SDS011;789;51.612;7.510;2024-02-23T01:31:29;1.37;;;1.27;;
1591;SDS011;789;51.612;7.510;2024-02-23T01:33:56;4.30;;;1.70;;
1591;SDS011;789;51.612;7.510;2024-02-23T01:36:24;1.67;;;1.43;;
1591;SDS011;789;51.612;7.510;2024-02-23T01:38:51;2.90;;;1.50;;
1591;SDS011;789;51.612;7.510;2024-02-23T01:41:18;1.80;;;1.63;;
1591;SDS011;789;51.612;7.510;2024-02-23T01:43:44;1.40;;;1.30;;
1591;SDS011;789;51.612;7.510;2024-02-23T01:46:12;1.60;;;1.43;;
1591;SDS011;789;51.612;7.510;2024-02-23T01:48:41;2.00;;;1.20;;
1591;SDS011;789;51.612;7.510;2024-02-23T01:51:08;1.37;;;1.27;;
1591;SDS011;789;51.612;7.510;2024-02-23T01:53:36;1.37;;;1.27;;
1591;SDS011;789;51.612;7.510;2024-02-23T01:56:04;3.13;;;1.50;;
1591;SDS011;789;51.612;7.510;2024-02-23T01:58:32;2.17;;;1.50;;
1591;SDS011;789;51.612;7.510;2024-02-23T02:01:01;2.20;;;1.20;;
1591;SDS011;789;51.612;7.510;2024-02-23T02:03:28;1.37;;;1.27;;
1591;SDS011;789;51.612;7.510;2024-02-23T02:05:55;4.73;;;1.50;;
1591;SDS011;789;51.612;7.510;2024-02-23T02:08:23;1.40;;;1.30;;
1591;SDS011;789;51.612;7.510;2024-02-23T02:10:52;3.50;;;1.30;;
1591;SDS011;789;51.612;7.510;2024-02-23T02:13:19;1.97;;;1.10;;
1591;SDS011;789;51.612;7.510;2024-02-23T02:15:45;2.00;;;1.30;;
1591;SDS011;789;51.612;7.510;2024-02-23T02:18:12;1.93;;;1.10;;
1591;SDS011;789;51.612;7.510;2024-02-23T02:20:39;1.57;;;1.17;;
1591;SDS011;789;51.612;7.510;2024-02-23T02:23:16;1.50;;;1.20;;
1591;SDS011;789;51.612;7.510;2024-02-23T02:25:43;2.40;;;1.23;;
1591;SDS011;789;51.612;7.510;2024-02-23T02:28:11;1.27;;;1.17;;
1591;SDS011;789;51.612;7.510;2024-02-23T02:30:37;2.80;;;1.30;;
1591;SDS011;789;51.612;7.510;2024-02-23T02:33:05;2.70;;;1.53;;
1591;SDS011;789;51.612;7.510;2024-02-23T02:35:31;2.87;;;1.10;;
1591;SDS011;789;51.612;7.510;2024-02-23T02:37:58;1.87;;;1.30;;
1591;SDS011;789;51.612;7.510;2024-02-23T02:40:25;3.50;;;1.30;;
1591;SDS011;789;51.612;7.510;2024-02-23T02:42:52;3.03;;;1.50;;
1591;SDS011;789;51.612;7.510;2024-02-23T02:45:20;2.90;;;1.63;;
1591;SDS011;789;51.612;7.510;2024-02-23T02:47:46;1.53;;;1.20;;
1591;SDS011;789;51.612;7.510;2024-02-23T02:50:13;3.40;;;1.20;;
1591;SDS011;789;51.612;7.510;2024-02-23T02:52:41;1.43;;;1.13;;
1591;SDS011;789;51.612;7.510;2024-02-23T02:55:08;5.20;;;1.83;;
1591;SDS011;789;51.612;7.510;2024-02-23T02:57:35;8.23;;;1.17;;
1591;SDS011;789;51.612;7.510;2024-02-23T03:00:02;3.43;;;1.53;;
1591;SDS011;789;51.612;7.510;2024-02-23T03:02:31;2.80;;;1.07;;
1591;SDS011;789;51.612;7.510;2024-02-23T03:04:58;2.83;;;1.20;;
1591;SDS011;789;51.612;7.510;2024-02-23T03:07:24;6.03;;;1.33;;
1591;SDS011;789;51.612;7.510;2024-02-23T03:09:51;3.43;;;1.20;;
1591;SDS011;789;51.612;7.510;2024-02-23T03:12:19;5.07;;;1.47;;
1591;SDS011;789;51.612;7.510;2024-02-23T03:14:46;2.90;;;1.00;;
1591;SDS011;789;51.612;7.510;2024-02-23T03:17:13;5.50;;;1.50;;
1591;SDS011;789;51.612;7.510;2024-02-23T03:19:41;4.23;;;1.30;;
1591;SDS011;789;51.612;7.510;2024-02-23T03:22:08;4.30;;;1.17;;
1591;SDS011;789;51.612;7.510;2024-02-23T03:24:35;5.43;;;1.37;;
1591;SDS011;789;51.612;7.510;2024-02-23T03:27:02;3.40;;;1.43;;
1591;SDS011;789;51.612;7.510;2024-02-23T03:29:29;5.60;;;1.43;;
1591;SDS011;789;51.612;7.510;2024-02-23T03:31:56;1.93;;;1.10;;
1591;SDS011;789;51.612;7.510;2024-02-23T03:34:23;4.23;;;1.43;;
1591;SDS011;789;51.612;7.510;2024-02-23T03:36:51;4.73;;;1.40;;
1591;SDS011;789;51.612;7.510;2024-02-23T03:39:17;3.80;;;1.57;;
1591;SDS011;789;51.612;7.510;2024-02-23T03:41:44;6.70;;;1.40;;
1591;SDS011;789;51.612;7.510;2024-02-23T03:44:11;1.67;;;0.90;;
1591;SDS011;789;51.612;7.510;2024-02-23T03:46:37;2.23;;;0.90;;
1591;SDS011;789;51.612;7.510;2024-02-23T03:49:04;4.93;;;1.00;;
1591;SDS011;789;51.612;7.510;2024-02-23T03:51:31;5.50;;;1.43;;
1591;SDS011;789;51.612;7.510;2024-02-23T03:54:01;4.63;;;1.10;;
1591;SDS011;789;51.612;7.510;2024-02-23T03:56:28;2.47;;;1.70;;
1591;SDS011;789;51.612;7.510;2024-02-23T03:58:58;2.50;;;1.00;;
1591;SDS011;789;51.612;7.510;2024-02-23T04:01:24;2.20;;;0.90;;
1591;SDS011;789;51.612;7.510;2024-02-23T04:03:51;4.50;;;1.47;;
1591;SDS011;789;51.612;7.510;2024-02-23T04:06:18;2.53;;;1.00;;
1591;SDS011;789;51.612;7.510;2024-02-23T04:08:44;3.37;;;1.57;;
1591;SDS011;789;51.612;7.510;2024-02-23T04:11:13;5.63;;;1.43;;
1591;SDS011;789;51.612;7.510;2024-02-23T04:13:40;3.10;;;1.43;;
1591;SDS011;789;51.612;7.510;2024-02-23T04:16:07;1.50;;;1.00;;
1591;SDS011;789;51.612;7.510;2024-02-23T04:18:34;4.37;;;1.00;;
1591;SDS011;789;51.612;7.510;2024-02-23T04:21:00;4.57;;;1.43;;
1591;SDS011;789;51.612;7.510;2024-02-23T04:23:27;3.00;;;1.20;;
1591;SDS011;789;51.612;7.510;2024-02-23T04:25:54;7.40;;;1.47;;
1591;SDS011;789;51.612;7.510;2024-02-23T04:28:22;1.90;;;1.40;;
1591;SDS011;789;51.612;7.510;2024-02-23T04:30:51;2.60;;;1.27;;
1591;SDS011;789;51.612;7.510;2024-02-23T04:33:18;2.07;;;1.30;;
1591;SDS011;789;51.612;7.510;2024-02-23T04:35:44;2.87;;;1.23;;
1591;SDS011;789;51.612;7.510;2024-02-23T04:38:11;2.67;;;1.30;;
1591;SDS011;789;51.612;7.510;2024-02-23T04:40:38;8.97;;;1.30;;
1591;SDS011;789;51.612;7.510;2024-02-23T04:43:05;2.80;;;1.30;;
1591;SDS011;789;51.612;7.510;2024-02-23T04:45:33;4.10;;;1.50;;
1591;SDS011;789;51.612;7.510;2024-02-23T04:48:00;2.60;;;1.60;;
1591;SDS011;789;51.612;7.510;2024-02-23T04:50:28;5.13;;;1.20;;
1591;SDS011;789;51.612;7.510;2024-02-23T04:52:55;2.57;;;1.30;;
1591;SDS011;789;51.612;7.510;2024-02-23T04:55:22;5.93;;;1.30;;
1591;SDS011;789;51.612;7.510;2024-02-23T04:57:49;2.60;;;1.00;;
1591;SDS011;789;51.612;7.510;2024-02-23T05:00:15;2.67;;;1.20;;
1591;SDS011;789;51.612;7.510;2024-02-23T05:02:45;5.30;;;1.17;;
1591;SDS011;789;51.612;7.510;2024-02-23T05:05:12;4.23;;;1.10;;
1591;SDS011;789;51.612;7.510;2024-02-23T05:07:38;2.60;;;1.00;;
1591;SDS011;789;51.612;7.510;2024-02-23T05:10:05;3.43;;;1.20;;
1591;SDS011;789;51.612;7.510;2024-02-23T05:12:33;2.33;;;1.13;;
1591;SDS011;789;51.612;7.510;2024-02-23T05:14:59;2.87;;;1.13;;
1591;SDS011;789;51.612;7.510;2024-02-23T05:17:26;5.60;;;1.37;;
1591;SDS011;789;51.612;7.510;2024-02-23T05:19:54;7.53;;;1.60;;
1591;SDS011;789;51.612;7.510;2024-02-23T05:22:21;3.50;;;1.10;;
1591;SDS011;789;51.612;7.510;2024-02-23T05:24:48;4.50;;;1.23;;
1591;SDS011;789;51.612;7.510;2024-02-23T05:27:15;2.73;;;1.00;;
1591;SDS011;789;51.612;7.510;2024-02-23T05:29:41;7.23;;;1.60;;
1591;SDS011;789;51.612;7.510;2024-02-23T05:32:10;4.67;;;1.10;;
1591;SDS011;789;51.612;7.510;2024-02-23T05:34:37;2.10;;;1.17;;
1591;SDS011;789;51.612;7.510;2024-02-23T05:37:05;9.33;;;1.30;;
1591;SDS011;789;51.612;7.510;2024-02-23T05:39:32;7.00;;;1.07;;
1591;SDS011;789;51.612;7.510;2024-02-23T05:41:59;2.93;;;1.27;;
1591;SDS011;789;51.612;7.510;2024-02-23T05:44:25;2.40;;;1.20;;
1591;SDS011;789;51.612;7.510;2024-02-23T05:46:53;5.17;;;1.13;;
1591;SDS011;789;51.612;7.510;2024-02-23T05:49:20;3.30;;;1.60;;
1591;SDS011;789;51.612;7.510;2024-02-23T05:51:47;2.70;;;1.20;;
1591;SDS011;789;51.612;7.510;2024-02-23T05:54:15;2.73;;;1.30;;
1591;SDS011;789;51.612;7.510;2024-02-23T05:56:43;7.50;;;1.97;;
1591;SDS011;789;51.612;7.510;2024-02-23T06:01:59;5.60;;;1.10;;
1591;SDS011;789;51.612;7.510;2024-02-23T06:04:25;5.77;;;1.30;;
1591;SDS011;789;51.612;7.510;2024-02-23T06:06:52;4.10;;;0.90;;
1591;SDS011;789;51.612;7.510;2024-02-23T06:09:21;3.30;;;0.90;;
1591;SDS011;789;51.612;7.510;2024-02-23T06:11:48;2.53;;;1.20;;
1591;SDS011;789;51.612;7.510;2024-02-23T06:14:14;6.30;;;1.57;;
1591;SDS011;789;51.612;7.510;2024-02-23T06:16:41;10.30;;;1.93;;
1591;SDS011;789;51.612;7.510;2024-02-23T06:19:08;3.13;;;1.07;;
1591;SDS011;789;51.612;7.510;2024-02-23T06:21:35;4.63;;;1.23;;
1591;SDS011;789;51.612;7.510;2024-02-23T06:24:02;7.13;;;1.40;;
1591;SDS011;789;51.612;7.510;2024-02-23T06:26:31;3.83;;;1.33;;
1591;SDS011;789;51.612;7.510;2024-02-23T06:28:57;5.03;;;2.00;;
1591;SDS011;789;51.612;7.510;2024-02-23T06:31:24;3.20;;;1.10;;
1591;SDS011;789;51.612;7.510;2024-02-23T06:33:51;4.27;;;0.97;;
1591;SDS011;789;51.612;7.510;2024-02-23T06:36:18;6.72;;;1.40;;
1591;SDS011;789;51.612;7.510;2024-02-23T06:38:45;7.13;;;1.37;;
1591;SDS011;789;51.612;7.510;2024-02-23T06:41:12;2.30;;;0.90;;
1591;SDS011;789;51.612;7.510;2024-02-23T06:43:40;3.30;;;1.20;;
1591;SDS011;789;51.612;7.510;2024-02-23T06:46:07;2.20;;;1.30;;
1591;SDS011;789;51.612;7.510;2024-02-23T06:48:35;3.43;;;1.77;;
1591;SDS011;789;51.612;7.510;2024-02-23T06:51:06;9.87;;;2.17;;
1591;SDS011;789;51.612;7.510;2024-02-23T06:53:34;4.13;;;1.70;;
1591;SDS011;789;51.612;7.510;2024-02-23T06:56:01;7.47;;;1.40;;
1591;SDS011;789;51.612;7.510;2024-02-23T06:58:29;4.53;;;1.63;;
1591;SDS011;789;51.612;7.510;2024-02-23T07:00:57;9.00;;;1.77;;
1591;SDS011;789;51.612;7.510;2024-02-23T07:03:25;4.70;;;1.73;;
1591;SDS011;789;51.612;7.510;2024-02-23T07:05:51;5.70;;;1.20;;
1591;SDS011;789;51.612;7.510;2024-02-23T07:08:18;4.43;;;1.30;;
1591;SDS011;789;51.612;7.510;2024-02-23T07:10:45;4.20;;;1.67;;
1591;SDS011;789;51.612;7.510;2024-02-23T07:13:12;5.40;;;1.70;;
1591;SDS011;789;51.612;7.510;2024-02-23T07:15:39;3.70;;;1.43;;
1591;SDS011;789;51.612;7.510;2024-02-23T07:18:07;4.37;;;1.47;;
1591;SDS011;789;51.612;7.510;2024-02-23T07:20:34;9.77;;;3.00;;
1591;SDS011;789;51.612;7.510;2024-02-23T07:23:01;5.37;;;1.93;;
1591;SDS011;789;51.612;7.510;2024-02-23T07:25:28;11.87;;;4.07;;
1591;SDS011;789;51.612;7.510;2024-02-23T07:27:55;14.63;;;2.80;;
1591;SDS011;789;51.612;7.510;2024-02-23T07:30:22;12.10;;;2.47;;
1591;SDS011;789;51.612;7.510;2024-02-23T07:32:48;5.30;;;2.50;;
1591;SDS011;789;51.612;7.510;2024-02-23T07:35:16;10.07;;;2.50;;
1591;SDS011;789;51.612;7.510;2024-02-23T07:37:43;5.87;;;2.23;;
1591;SDS011;789;51.612;7.510;2024-02-23T07:40:10;9.80;;;2.37;;
1591;SDS011;789;51.612;7.510;2024-02-23T07:42:37;10.73;;;3.03;;
1591;SDS011;789;51.612;7.510;2024-02-23T07:45:04;9.63;;;2.63;;
1591;SDS011;789;51.612;7.510;2024-02-23T07:47:34;10.37;;;3.07;;
1591;SDS011;789;51.612;7.510;2024-02-23T07:50:01;9.63;;;2.70;;
1591;SDS011;789;51.612;7.510;2024-02-23T07:52:29;7.20;;;1.80;;
1591;SDS011;789;51.612;7.510;2024-02-23T07:54:56;6.07;;;2.07;;
1591;SDS011;789;51.612;7.510;2024-02-23T07:57:23;4.87;;;2.33;;
1591;SDS011;789;51.612;7.510;2024-02-23T07:59:50;9.20;;;2.40;;
1591;SDS011;789;51.612;7.510;2024-02-23T08:02:17;7.03;;;1.90;;
1591;SDS011;789;51.612;7.510;2024-02-23T08:04:43;4.70;;;1.70;;
1591;SDS011;789;51.612;7.510;2024-02-23T08:07:12;6.20;;;1.70;;
1591;SDS011;789;51.612;7.510;2024-02-23T08:09:41;8.17;;;1.83;;
1591;SDS011;789;51.612;7.510;2024-02-23T08:12:07;7.03;;;1.50;;
1591;SDS011;789;51.612;7.510;2024-02-23T08:14:34;5.77;;;1.70;;
1591;SDS011;789;51.612;7.510;2024-02-23T08:17:01;7.23;;;2.20;;
1591;SDS011;789;51.612;7.510;2024-02-23T08:19:28;9.37;;;2.77;;
1591;SDS011;789;51.612;7.510;2024-02-23T08:21:55;5.60;;;1.63;;
1591;SDS011;789;51.612;7.510;2024-02-23T08:24:22;2.80;;;1.70;;
1591;SDS011;789;51.612;7.510;2024-02-23T08:26:50;12.13;;;2.10;;
1591;SDS011;789;51.612;7.510;2024-02-23T08:29:17;3.50;;;1.20;;
1591;SDS011;789;51.612;7.510;2024-02-23T08:31:44;5.77;;;1.57;;
1591;SDS011;789;51.612;7.510;2024-02-23T08:34:11;8.63;;;2.37;;
1591;SDS011;789;51.612;7.510;2024-02-23T08:36:38;5.43;;;1.50;;
1591;SDS011;789;51.612;7.510;2024-02-23T08:39:05;5.07;;;1.70;;
1591;SDS011;789;51.612;7.510;2024-02-23T08:41:32;5.07;;;1.70;;
1591;SDS011;789;51.612;7.510;2024-02-23T08:44:01;5.13;;;1.50;;
1591;SDS011;789;51.612;7.510;2024-02-23T08:46:27;9.50;;;2.50;;
1591;SDS011;789;51.612;7.510;2024-02-23T08:48:54;6.50;;;2.77;;
1591;SDS011;789;51.612;7.510;2024-02-23T08:51:21;5.57;;;2.57;;
1591;SDS011;789;51.612;7.510;2024-02-23T08:53:47;6.93;;;1.37;;
1591;SDS011;789;51.612;7.510;2024-02-23T08:56:14;5.27;;;1.53;;
1591;SDS011;789;51.612;7.510;2024-02-23T08:58:41;4.57;;;1.67;;
1591;SDS011;789;51.612;7.510;2024-02-23T09:01:09;10.97;;;2.30;;
1591;SDS011;789;51.612;7.510;2024-02-23T09:03:36;8.03;;;2.60;;
1591;SDS011;789;51.612;7.510;2024-02-23T09:06:03;3.03;;;1.43;;
1591;SDS011;789;51.612;7.510;2024-02-23T09:08:30;3.37;;;1.73;;
1591;SDS011;789;51.612;7.510;2024-02-23T09:10:57;3.67;;;1.03;;
1591;SDS011;789;51.612;7.510;2024-02-23T09:13:24;6.77;;;2.00;;
1591;SDS011;789;51.612;7.510;2024-02-23T09:15:51;4.20;;;1.90;;
1591;SDS011;789;51.612;7.510;2024-02-23T09:18:19;3.23;;;1.00;;
1591;SDS011;789;51.612;7.510;2024-02-23T09:20:46;5.87;;;1.97;;
1591;SDS011;789;51.612;7.510;2024-02-23T09:23:13;6.10;;;3.17;;
1591;SDS011;789;51.612;7.510;2024-02-23T09:25:39;5.50;;;2.67;;
1591;SDS011;789;51.612;7.510;2024-02-23T09:28:06;8.03;;;2.40;;
1591;SDS011;789;51.612;7.510;2024-02-23T09:30:36;5.30;;;2.50;;
1591;SDS011;789;51.612;7.510;2024-02-23T09:33:03;5.10;;;2.20;;
1591;SDS011;789;51.612;7.510;2024-02-23T09:35:31;5.83;;;2.17;;
1591;SDS011;789;51.612;7.510;2024-02-23T09:37:58;28.73;;;2.67;;
1591;SDS011;789;51.612;7.510;2024-02-23T09:40:24;9.33;;;2.60;;
1591;SDS011;789;51.612;7.510;2024-02-23T09:42:52;9.50;;;2.83;;
1591;SDS011;789;51.612;7.510;2024-02-23T09:45:22;4.97;;;1.80;;
1591;SDS011;789;51.612;7.510;2024-02-23T09:47:52;6.67;;;2.70;;
1591;SDS011;789;51.612;7.510;2024-02-23T09:50:21;4.53;;;2.20;;
1591;SDS011;789;51.612;7.510;2024-02-23T09:52:50;5.07;;;1.77;;
1591;SDS011;789;51.612;7.510;2024-02-23T09:55:17;7.13;;;2.97;;
1591;SDS011;789;51.612;7.510;2024-02-23T09:57:44;4.57;;;2.13;;
1591;SDS011;789;51.612;7.510;2024-02-23T10:00:12;6.80;;;1.80;;
1591;SDS011;789;51.612;7.510;2024-02-23T10:02:42;5.93;;;1.97;;
1591;SDS011;789;51.612;7.510;2024-02-23T10:05:10;4.67;;;1.47;;
1591;SDS011;789;51.612;7.510;2024-02-23T10:07:38;5.37;;;2.00;;
1591;SDS011;789;51.612;7.510;2024-02-23T10:10:08;10.60;;;2.87;;
1591;SDS011;789;51.612;7.510;2024-02-23T10:12:36;6.97;;;2.70;;
1591;SDS011;789;51.612;7.510;2024-02-23T10:15:03;9.30;;;4.30;;
1591;SDS011;789;51.612;7.510;2024-02-23T10:17:30;11.37;;;4.37;;
1591;SDS011;789;51.612;7.510;2024-02-23T10:19:57;8.20;;;2.90;;
1591;SDS011;789;51.612;7.510;2024-02-23T10:22:24;10.77;;;4.70;;
1591;SDS011;789;51.612;7.510;2024-02-23T10:24:52;6.40;;;2.70;;
1591;SDS011;789;51.612;7.510;2024-02-23T10:27:22;5.00;;;2.33;;
1591;SDS011;789;51.612;7.510;2024-02-23T10:29:49;5.03;;;1.60;;
1591;SDS011;789;51.612;7.510;2024-02-23T10:32:16;6.07;;;2.70;;
1591;SDS011;789;51.612;7.510;2024-02-23T10:34:46;10.37;;;2.70;;
1591;SDS011;789;51.612;7.510;2024-02-23T10:37:14;6.33;;;2.30;;
1591;SDS011;789;51.612;7.510;2024-02-23T10:39:41;7.20;;;3.00;;
1591;SDS011;789;51.612;7.510;2024-02-23T10:42:09;4.10;;;2.03;;
1591;SDS011;789;51.612;7.510;2024-02-23T10:44:39;8.57;;;2.63;;
1591;SDS011;789;51.612;7.510;2024-02-23T10:47:06;3.27;;;1.97;;
1591;SDS011;789;51.612;7.510;2024-02-23T10:49:33;9.80;;;4.77;;
1591;SDS011;789;51.612;7.510;2024-02-23T10:52:03;6.23;;;2.83;;
1591;SDS011;789;51.612;7.510;2024-02-23T10:54:31;6.03;;;3.23;;
1591;SDS011;789;51.612;7.510;2024-02-23T10:56:57;11.47;;;3.70;;
1591;SDS011;789;51.612;7.510;2024-02-23T10:59:25;10.03;;;4.03;;
1591;SDS011;789;51.612;7.510;2024-02-23T11:01:54;8.27;;;3.90;;
1591;SDS011;789;51.612;7.510;2024-02-23T11:04:24;6.40;;;1.87;;
1591;SDS011;789;51.612;7.510;2024-02-23T11:06:54;11.23;;;3.50;;
1591;SDS011;789;51.612;7.510;2024-02-23T11:09:23;6.90;;;3.37;;
1591;SDS011;789;51.612;7.510;2024-02-23T11:11:52;5.83;;;2.50;;
1591;SDS011;789;51.612;7.510;2024-02-23T11:14:28;7.60;;;2.70;;
1591;SDS011;789;51.612;7.510;2024-02-23T11:16:58;8.33;;;2.90;;
1591;SDS011;789;51.612;7.510;2024-02-23T11:19:32;5.60;;;2.30;;
1591;SDS011;789;51.612;7.510;2024-02-23T11:22:00;8.80;;;3.60;;
1591;SDS011;789;51.612;7.510;2024-02-23T11:24:28;3.80;;;1.90;;
1591;SDS011;789;51.612;7.510;2024-02-23T11:26:56;5.93;;;3.00;;
1591;SDS011;789;51.612;7.510;2024-02-23T11:29:25;9.77;;;2.93;;
1591;SDS011;789;51.612;7.510;2024-02-23T11:31:53;8.60;;;3.97;;
1591;SDS011;789;51.612;7.510;2024-02-23T11:34:26;8.17;;;3.00;;
1591;SDS011;789;51.612;7.510;2024-02-23T11:36:54;5.90;;;3.27;;
1591;SDS011;789;51.612;7.510;2024-02-23T11:39:21;8.83;;;2.50;;
1591;SDS011;789;51.612;7.510;2024-02-23T11:41:48;7.47;;;2.07;;
1591;SDS011;789;51.612;7.510;2024-02-23T11:44:15;3.13;;;1.20;;
1591;SDS011;789;51.612;7.510;2024-02-23T11:46:43;7.93;;;2.90;;
1591;SDS011;789;51.612;7.510;2024-02-23T11:49:10;7.83;;;2.60;;
1591;SDS011;789;51.612;7.510;2024-02-23T11:51:38;3.90;;;1.87;;
1591;SDS011;789;51.612;7.510;2024-02-23T11:54:05;12.73;;;2.57;;
1591;SDS011;789;51.612;7.510;2024-02-23T11:56:32;5.80;;;1.13;;
1591;SDS011;789;51.612;7.510;2024-02-23T11:59:02;6.23;;;1.37;;
1591;SDS011;789;51.612;7.510;2024-02-23T12:01:29;3.30;;;1.10;;
1591;SDS011;789;51.612;7.510;2024-02-23T12:03:57;1.90;;;1.00;;
1591;SDS011;789;51.612;7.510;2024-02-23T12:06:23;5.20;;;1.90;;
1591;SDS011;789;51.612;7.510;2024-02-23T12:08:55;3.03;;;1.00;;
1591;SDS011;789;51.612;7.510;2024-02-23T12:11:22;6.33;;;1.63;;
1591;SDS011;789;51.612;7.510;2024-02-23T12:13:50;2.83;;;1.10;;
1591;SDS011;789;51.612;7.510;2024-02-23T12:16:17;11.97;;;4.87;;
1591;SDS011;789;51.612;7.510;2024-02-23T12:18:44;7.40;;;2.40;;
1591;SDS011;789;51.612;7.510;2024-02-23T12:21:10;6.30;;;1.57;;
1591;SDS011;789;51.612;7.510;2024-02-23T12:23:39;2.63;;;0.90;;
1591;SDS011;789;51.612;7.510;2024-02-23T12:26:07;2.57;;;1.00;;
1591;SDS011;789;51.612;7.510;2024-02-23T12:28:35;1.37;;;0.80;;
1591;SDS011;789;51.612;7.510;2024-02-23T12:31:02;2.80;;;0.90;;
1591;SDS011;789;51.612;7.510;2024-02-23T12:33:31;2.70;;;1.00;;
1591;SDS011;789;51.612;7.510;2024-02-23T12:35:59;3.80;;;0.90;;
1591;SDS011;789;51.612;7.510;2024-02-23T12:38:26;1.60;;;1.00;;
1591;SDS011;789;51.612;7.510;2024-02-23T12:40:53;3.63;;;1.00;;
1591;SDS011;789;51.612;7.510;2024-02-23T12:43:22;4.00;;;1.60;;
1591;SDS011;789;51.612;7.510;2024-02-23T12:45:50;4.93;;;1.10;;
1591;SDS011;789;51.612;7.510;2024-02-23T12:48:17;7.30;;;2.50;;
1591;SDS011;789;51.612;7.510;2024-02-23T12:50:45;3.37;;;1.50;;
1591;SDS011;789;51.612;7.510;2024-02-23T12:53:29;4.30;;;1.73;;
1591;SDS011;789;51.612;7.510;2024-02-23T12:55:57;5.10;;;1.10;;
1591;SDS011;789;51.612;7.510;2024-02-23T12:58:26;5.50;;;1.03;;
1591;SDS011;789;51.612;7.510;2024-02-23T13:00:52;4.13;;;1.13;;
1591;SDS011;789;51.612;7.510;2024-02-23T13:03:19;3.23;;;1.17;;
1591;SDS011;789;51.612;7.510;2024-02-23T13:05:46;2.63;;;0.97;;
1591;SDS011;789;51.612;7.510;2024-02-23T13:08:13;2.00;;;1.17;;
1591;SDS011;789;51.612;7.510;2024-02-23T13:10:40;4.43;;;1.67;;
1591;SDS011;789;51.612;7.510;2024-02-23T13:13:07;5.30;;;1.17;;
1591;SDS011;789;51.612;7.510;2024-02-23T13:15:35;6.00;;;1.67;;
1591;SDS011;789;51.612;7.510;2024-02-23T13:18:02;5.13;;;1.50;;
1591;SDS011;789;51.612;7.510;2024-02-23T13:20:29;4.23;;;1.10;;
1591;SDS011;789;51.612;7.510;2024-02-23T13:22:56;2.77;;;1.20;;
1591;SDS011;789;51.612;7.510;2024-02-23T13:25:23;4.43;;;1.20;;
1591;SDS011;789;51.612;7.510;2024-02-23T13:27:50;9.80;;;1.37;;
1591;SDS011;789;51.612;7.510;2024-02-23T13:30:16;3.33;;;1.30;;
1591;SDS011;789;51.612;7.510;2024-02-23T13:32:45;7.70;;;1.90;;
1591;SDS011;789;51.612;7.510;2024-02-23T13:35:12;4.17;;;1.50;;
1591;SDS011;789;51.612;7.510;2024-02-23T13:37:39;3.60;;;1.17;;
1591;SDS011;789;51.612;7.510;2024-02-23T13:40:07;4.90;;;1.70;;
1591;SDS011;789;51.612;7.510;2024-02-23T13:42:34;2.87;;;1.20;;
1591;SDS011;789;51.612;7.510;2024-02-23T13:45:03;5.30;;;1.33;;
1591;SDS011;789;51.612;7.510;2024-02-23T13:47:30;2.43;;;1.10;;
1591;SDS011;789;51.612;7.510;2024-02-23T13:49:59;2.73;;;1.30;;
1591;SDS011;789;51.612;7.510;2024-02-23T13:52:25;2.30;;;1.27;;
1591;SDS011;789;51.612;7.510;2024-02-23T13:54:52;4.83;;;1.33;;
1591;SDS011;789;51.612;7.510;2024-02-23T13:57:18;2.50;;;1.43;;
1591;SDS011;789;51.612;7.510;2024-02-23T13:59:45;4.30;;;1.53;;
1591;SDS011;789;51.612;7.510;2024-02-23T14:02:12;8.73;;;1.80;;
1591;SDS011;789;51.612;7.510;2024-02-23T14:04:39;3.93;;;0.93;;
1591;SDS011;789;51.612;7.510;2024-02-23T14:07:08;3.53;;;1.30;;
1591;SDS011;789;51.612;7.510;2024-02-23T14:09:39;3.70;;;1.30;;
1591;SDS011;789;51.612;7.510;2024-02-23T14:12:07;2.60;;;1.13;;
1591;SDS011;789;51.612;7.510;2024-02-23T14:14:34;2.73;;;1.23;;
1591;SDS011;789;51.612;7.510;2024-02-23T14:17:00;6.47;;;1.53;;
1591;SDS011;789;51.612;7.510;2024-02-23T14:19:27;5.80;;;2.07;;
1591;SDS011;789;51.612;7.510;2024-02-23T14:21:54;4.43;;;2.03;;
1591;SDS011;789;51.612;7.510;2024-02-23T14:24:22;6.40;;;1.57;;
1591;SDS011;789;51.612;7.510;2024-02-23T14:26:49;4.80;;;1.70;;
1591;SDS011;789;51.612;7.510;2024-02-23T14:29:16;6.97;;;2.30;;
1591;SDS011;789;51.612;7.510;2024-02-23T14:31:43;4.77;;;1.60;;
1591;SDS011;789;51.612;7.510;2024-02-23T14:34:10;4.83;;;1.63;;
1591;SDS011;789;51.612;7.510;2024-02-23T14:36:37;3.77;;;1.63;;
1591;SDS011;789;51.612;7.510;2024-02-23T14:39:03;4.10;;;1.43;;
1591;SDS011;789;51.612;7.510;2024-02-23T14:41:32;5.70;;;1.57;;
1591;SDS011;789;51.612;7.510;2024-02-23T14:43:58;7.60;;;1.73;;
1591;SDS011;789;51.612;7.510;2024-02-23T14:46:25;5.47;;;1.33;;
1591;SDS011;789;51.612;7.510;2024-02-23T14:48:52;5.83;;;1.80;;
1591;SDS011;789;51.612;7.510;2024-02-23T14:51:19;5.90;;;1.90;;
1591;SDS011;789;51.612;7.510;2024-02-23T14:53:45;3.50;;;1.33;;
1591;SDS011;789;51.612;7.510;2024-02-23T14:56:12;1.90;;;0.90;;
1591;SDS011;789;51.612;7.510;2024-02-23T14:58:40;8.40;;;1.60;;
1591;SDS011;789;51.612;7.510;2024-02-23T15:01:07;3.77;;;1.20;;
1591;SDS011;789;51.612;7.510;2024-02-23T15:03:34;2.63;;;1.20;;
1591;SDS011;789;51.612;7.510;2024-02-23T15:06:01;3.97;;;1.80;;
1591;SDS011;789;51.612;7.510;2024-02-23T15:08:28;5.20;;;2.23;;
1591;SDS011;789;51.612;7.510;2024-02-23T15:10:55;9.80;;;3.77;;
1591;SDS011;789;51.612;7.510;2024-02-23T15:13:22;4.83;;;1.73;;
1591;SDS011;789;51.612;7.510;2024-02-23T15:15:50;7.20;;;1.60;;
1591;SDS011;789;51.612;7.510;2024-02-23T15:18:17;3.73;;;1.40;;
1591;SDS011;789;51.612;7.510;2024-02-23T15:20:44;3.70;;;1.23;;
1591;SDS011;789;51.612;7.510;2024-02-23T15:23:11;14.00;;;4.77;;
1591;SDS011;789;51.612;7.510;2024-02-23T15:25:38;10.57;;;2.83;;
1591;SDS011;789;51.612;7.510;2024-02-23T15:28:05;5.60;;;3.10;;
1591;SDS011;789;51.612;7.510;2024-02-23T15:30:32;4.33;;;1.87;;
1591;SDS011;789;51.612;7.510;2024-02-23T15:33:00;5.57;;;1.60;;